sensor_id;sensor_type;location;lat;lon;timestamp;pressure;altitude;pressure_sealevel;temperature;humidity
57248;BME280;55809;46.618;10.764;2024-01-27T00:02:20;93905.66;;;8.71;100.00
57248;BME280;55809;46.618;10.764;2024-01-27T00:04:47;93900.13;;;8.60;100.00
57248;BME280;55809;46.618;10.764;2024-01-27T00:07:14;93913.72;;;8.44;100.00
57248;BME280;55809;46.618;10.764;2024-01-27T00:09:42;93900.53;;;8.39;100.00
57248;BME280;55809;46.618;10.764;2024-01-27T00:12:09;93887.44;;;8.37;100.00
57248;BME280;55809;46.618;10.764;2024-01-27T00:14:38;93829.78;;;7.89;100.00
57248;BME280;55809;46.618;10.764;2024-01-27T00:17:05;93893.91;;;8.33;100.00
57248;BME280;55809;46.618;10.764;2024-01-27T00:19:32;93810.09;;;7.81;100.00
57248;BME280;55809;46.618;10.764;2024-01-27T00:21:59;93901.84;;;8.26;100.00
57248;BME280;55809;46.618;10.764;2024-01-27T00:24:26;93891.16;;;8.29;100.00
57248;BME280;55809;46.618;10.764;2024-01-27T00:26:54;93887.63;;;8.25;100.00
57248;BME280;55809;46.618;10.764;2024-01-27T00:29:21;93853.44;;;8.03;100.00
57248;BME280;55809;46.618;10.764;2024-01-27T00:31:48;93892.66;;;8.27;100.00
57248;BME280;55809;46.618;10.764;2024-01-27T00:34:16;93894.16;;;8.24;100.00
57248;BME280;55809;46.618;10.764;2024-01-27T00:36:43;93890.97;;;8.18;100.00
57248;BME280;55809;46.618;10.764;2024-01-27T00:39:14;93901.06;;;8.25;100.00
57248;BME280;55809;46.618;10.764;2024-01-27T00:41:41;93779.44;;;7.40;100.00
57248;BME280;55809;46.618;10.764;2024-01-27T00:44:09;93853.44;;;7.80;100.00
57248;BME280;55809;46.618;10.764;2024-01-27T00:46:36;93891.19;;;8.06;100.00
57248;BME280;55809;46.618;10.764;2024-01-27T00:49:03;93863.66;;;7.70;100.00
57248;BME280;55809;46.618;10.764;2024-01-27T00:51:30;93912.47;;;7.95;100.00
57248;BME280;55809;46.618;10.764;2024-01-27T00:53:57;93914.75;;;7.93;100.00
57248;BME280;55809;46.618;10.764;2024-01-27T00:56:24;93922.81;;;7.93;100.00
57248;BME280;55809;46.618;10.764;2024-01-27T00:58:51;93922.25;;;7.84;100.00
57248;BME280;55809;46.618;10.764;2024-01-27T01:01:19;93931.19;;;7.69;100.00
57248;BME280;55809;46.618;10.764;2024-01-27T01:03:46;93925.88;;;7.72;100.00
57248;BME280;55809;46.618;10.764;2024-01-27T01:06:13;93885.19;;;7.32;100.00
57248;BME280;55809;46.618;10.764;2024-01-27T01:08:40;93911.09;;;7.63;100.00
57248;BME280;55809;46.618;10.764;2024-01-27T01:11:07;93922.13;;;7.77;100.00
57248;BME280;55809;46.618;10.764;2024-01-27T01:13:35;93911.41;;;7.77;100.00
57248;BME280;55809;46.618;10.764;2024-01-27T01:16:01;93934.31;;;7.71;100.00
57248;BME280;55809;46.618;10.764;2024-01-27T01:18:30;93948.84;;;7.70;100.00
57248;BME280;55809;46.618;10.764;2024-01-27T01:20:57;93938.03;;;7.66;100.00
57248;BME280;55809;46.618;10.764;2024-01-27T01:23:24;93930.69;;;7.63;100.00
57248;BME280;55809;46.618;10.764;2024-01-27T01:25:51;93933.81;;;7.65;100.00
57248;BME280;55809;46.618;10.764;2024-01-27T01:28:18;93924.41;;;7.36;100.00
57248;BME280;55809;46.618;10.764;2024-01-27T01:30:44;93959.69;;;7.54;100.00
57248;BME280;55809;46.618;10.764;2024-01-27T01:33:11;93960.41;;;7.51;100.00
57248;BME280;55809;46.618;10.764;2024-01-27T01:35:40;93959.06;;;7.41;100.00
57248;BME280;55809;46.618;10.764;2024-01-27T01:38:07;93964.00;;;7.39;100.00
57248;BME280;55809;46.618;10.764;2024-01-27T01:40:33;93966.91;;;7.31;100.00
57248;BME280;55809;46.618;10.764;2024-01-27T01:43:00;93972.78;;;7.20;100.00
57248;BME280;55809;46.618;10.764;2024-01-27T01:45:29;93970.91;;;7.21;100.00
57248;BME280;55809;46.618;10.764;2024-01-27T01:47:56;93977.22;;;7.13;100.00
57248;BME280;55809;46.618;10.764;2024-01-27T01:50:22;93979.00;;;7.05;100.00
57248;BME280;55809;46.618;10.764;2024-01-27T01:52:52;93968.75;;;7.11;100.00
57248;BME280;55809;46.618;10.764;2024-01-27T01:55:20;93975.69;;;7.12;100.00
57248;BME280;55809;46.618;10.764;2024-01-27T01:57:46;93982.09;;;7.07;100.00
57248;BME280;55809;46.618;10.764;2024-01-27T02:00:15;93979.78;;;6.90;100.00
57248;BME280;55809;46.618;10.764;2024-01-27T02:02:43;93986.59;;;7.03;100.00
57248;BME280;55809;46.618;10.764;2024-01-27T02:05:11;93982.31;;;6.98;100.00
57248;BME280;55809;46.618;10.764;2024-01-27T02:07:39;93988.16;;;7.04;100.00
57248;BME280;55809;46.618;10.764;2024-01-27T02:10:13;94010.00;;;7.02;100.00
57248;BME280;55809;46.618;10.764;2024-01-27T02:12:41;94000.81;;;7.03;100.00
57248;BME280;55809;46.618;10.764;2024-01-27T02:15:10;94016.06;;;6.99;100.00
57248;BME280;55809;46.618;10.764;2024-01-27T02:17:37;94010.84;;;6.91;100.00
57248;BME280;55809;46.618;10.764;2024-01-27T02:20:05;94005.69;;;6.82;100.00
57248;BME280;55809;46.618;10.764;2024-01-27T02:22:33;93999.97;;;6.84;100.00
57248;BME280;55809;46.618;10.764;2024-01-27T02:25:02;93983.38;;;6.62;100.00
57248;BME280;55809;46.618;10.764;2024-01-27T02:27:29;94008.09;;;6.87;100.00
57248;BME280;55809;46.618;10.764;2024-01-27T02:29:56;94005.31;;;6.99;100.00
57248;BME280;55809;46.618;10.764;2024-01-27T02:32:22;94010.16;;;6.94;100.00
57248;BME280;55809;46.618;10.764;2024-01-27T02:34:49;94014.06;;;6.96;100.00
57248;BME280;55809;46.618;10.764;2024-01-27T02:37:17;94016.34;;;6.94;100.00
57248;BME280;55809;46.618;10.764;2024-01-27T02:39:44;93972.97;;;6.61;100.00
57248;BME280;55809;46.618;10.764;2024-01-27T02:42:13;94009.94;;;6.83;100.00
57248;BME280;55809;46.618;10.764;2024-01-27T02:44:40;94011.31;;;6.77;100.00
57248;BME280;55809;46.618;10.764;2024-01-27T02:47:07;94010.09;;;6.74;100.00
57248;BME280;55809;46.618;10.764;2024-01-27T02:49:34;94014.97;;;6.69;100.00
57248;BME280;55809;46.618;10.764;2024-01-27T02:52:01;94008.91;;;6.72;100.00
57248;BME280;55809;46.618;10.764;2024-01-27T02:54:28;93978.78;;;6.47;100.00
57248;BME280;55809;46.618;10.764;2024-01-27T02:56:54;94015.47;;;6.74;100.00
57248;BME280;55809;46.618;10.764;2024-01-27T02:59:23;94021.97;;;6.73;100.00
57248;BME280;55809;46.618;10.764;2024-01-27T03:01:50;94022.31;;;6.72;100.00
57248;BME280;55809;46.618;10.764;2024-01-27T03:04:16;94014.34;;;6.60;100.00
57248;BME280;55809;46.618;10.764;2024-01-27T03:06:43;94018.16;;;6.58;100.00
57248;BME280;55809;46.618;10.764;2024-01-27T03:09:10;94016.66;;;6.61;100.00
57248;BME280;55809;46.618;10.764;2024-01-27T03:11:37;94013.03;;;6.53;100.00
57248;BME280;55809;46.618;10.764;2024-01-27T03:14:04;94016.09;;;6.52;100.00
57248;BME280;55809;46.618;10.764;2024-01-27T03:16:32;94016.00;;;6.48;100.00
57248;BME280;55809;46.618;10.764;2024-01-27T03:19:00;94018.69;;;6.48;100.00
57248;BME280;55809;46.618;10.764;2024-01-27T03:21:27;94019.19;;;6.54;100.00
57248;BME280;55809;46.618;10.764;2024-01-27T03:23:54;94021.44;;;6.52;100.00
57248;BME280;55809;46.618;10.764;2024-01-27T03:26:21;94024.13;;;6.52;100.00
57248;BME280;55809;46.618;10.764;2024-01-27T03:28:48;94029.59;;;6.55;100.00
57248;BME280;55809;46.618;10.764;2024-01-27T03:31:14;94030.97;;;6.49;100.00
57248;BME280;55809;46.618;10.764;2024-01-27T03:33:42;94031.81;;;6.53;100.00
57248;BME280;55809;46.618;10.764;2024-01-27T03:36:10;94024.13;;;6.52;100.00
57248;BME280;55809;46.618;10.764;2024-01-27T03:38:37;94035.63;;;6.52;100.00
57248;BME280;55809;46.618;10.764;2024-01-27T03:41:04;94003.34;;;6.33;100.00
57248;BME280;55809;46.618;10.764;2024-01-27T03:43:31;94031.56;;;6.58;100.00
57248;BME280;55809;46.618;10.764;2024-01-27T03:45:58;94028.19;;;6.62;100.00
57248;BME280;55809;46.618;10.764;2024-01-27T03:48:25;94025.31;;;6.54;100.00
57248;BME280;55809;46.618;10.764;2024-01-27T03:50:54;94003.00;;;6.34;100.00
57248;BME280;55809;46.618;10.764;2024-01-27T03:53:21;94031.38;;;6.51;100.00
57248;BME280;55809;46.618;10.764;2024-01-27T03:55:48;94028.59;;;6.48;100.00
57248;BME280;55809;46.618;10.764;2024-01-27T03:58:15;94032.34;;;6.43;100.00
57248;BME280;55809;46.618;10.764;2024-01-27T04:00:42;94028.78;;;6.39;100.00
57248;BME280;55809;46.618;10.764;2024-01-27T04:03:08;94026.03;;;6.36;100.00
57248;BME280;55809;46.618;10.764;2024-01-27T04:05:36;93974.34;;;6.07;100.00
57248;BME280;55809;46.618;10.764;2024-01-27T04:08:05;94010.44;;;6.41;100.00
57248;BME280;55809;46.618;10.764;2024-01-27T04:10:32;93999.03;;;6.44;100.00
57248;BME280;55809;46.618;10.764;2024-01-27T04:12:59;94002.06;;;6.43;100.00
57248;BME280;55809;46.618;10.764;2024-01-27T04:15:26;94011.56;;;6.40;100.00
57248;BME280;55809;46.618;10.764;2024-01-27T04:17:53;94012.09;;;6.46;100.00
57248;BME280;55809;46.618;10.764;2024-01-27T04:20:21;94018.25;;;6.46;100.00
57248;BME280;55809;46.618;10.764;2024-01-27T04:22:48;94009.50;;;6.49;100.00
57248;BME280;55809;46.618;10.764;2024-01-27T04:25:16;94007.69;;;6.53;100.00
57248;BME280;55809;46.618;10.764;2024-01-27T04:27:43;94015.91;;;6.61;100.00
57248;BME280;55809;46.618;10.764;2024-01-27T04:30:11;94019.88;;;6.67;100.00
57248;BME280;55809;46.618;10.764;2024-01-27T04:32:39;93958.19;;;6.19;100.00
57248;BME280;55809;46.618;10.764;2024-01-27T04:35:08;94036.59;;;6.76;100.00
57248;BME280;55809;46.618;10.764;2024-01-27T04:37:36;94032.59;;;6.70;100.00
57248;BME280;55809;46.618;10.764;2024-01-27T04:40:04;94033.28;;;6.67;100.00
57248;BME280;55809;46.618;10.764;2024-01-27T04:42:34;94048.53;;;6.63;100.00
57248;BME280;55809;46.618;10.764;2024-01-27T04:45:01;94054.06;;;6.54;100.00
57248;BME280;55809;46.618;10.764;2024-01-27T04:47:30;94051.47;;;6.42;100.00
57248;BME280;55809;46.618;10.764;2024-01-27T04:49:57;94064.34;;;6.36;100.00
57248;BME280;55809;46.618;10.764;2024-01-27T04:52:23;93996.88;;;5.78;100.00
57248;BME280;55809;46.618;10.764;2024-01-27T04:54:51;94018.97;;;5.87;100.00
57248;BME280;55809;46.618;10.764;2024-01-27T04:57:18;94056.25;;;6.20;100.00
57248;BME280;55809;46.618;10.764;2024-01-27T04:59:46;94068.00;;;6.16;100.00
57248;BME280;55809;46.618;10.764;2024-01-27T05:02:13;94062.09;;;6.10;100.00
57248;BME280;55809;46.618;10.764;2024-01-27T05:04:40;94064.34;;;6.08;100.00
57248;BME280;55809;46.618;10.764;2024-01-27T05:07:07;94069.59;;;6.04;100.00
57248;BME280;55809;46.618;10.764;2024-01-27T05:09:34;94064.91;;;6.01;100.00
57248;BME280;55809;46.618;10.764;2024-01-27T05:12:01;94079.19;;;6.05;100.00
57248;BME280;55809;46.618;10.764;2024-01-27T05:14:28;94080.88;;;6.10;100.00
57248;BME280;55809;46.618;10.764;2024-01-27T05:16:57;94088.56;;;6.11;100.00
57248;BME280;55809;46.618;10.764;2024-01-27T05:19:24;94084.00;;;6.12;100.00
57248;BME280;55809;46.618;10.764;2024-01-27T05:21:51;94084.31;;;6.10;100.00
57248;BME280;55809;46.618;10.764;2024-01-27T05:24:17;94088.56;;;6.11;100.00
57248;BME280;55809;46.618;10.764;2024-01-27T05:26:44;94090.66;;;6.18;100.00
57248;BME280;55809;46.618;10.764;2024-01-27T05:29:11;94095.25;;;6.18;100.00
57248;BME280;55809;46.618;10.764;2024-01-27T05:31:38;94031.44;;;5.67;100.00
57248;BME280;55809;46.618;10.764;2024-01-27T05:34:10;94071.66;;;5.95;100.00
57248;BME280;55809;46.618;10.764;2024-01-27T05:36:36;94109.09;;;6.20;100.00
57248;BME280;55809;46.618;10.764;2024-01-27T05:39:03;94110.72;;;6.24;100.00
57248;BME280;55809;46.618;10.764;2024-01-27T05:41:31;94109.28;;;6.27;100.00
57248;BME280;55809;46.618;10.764;2024-01-27T05:43:58;94117.31;;;6.27;100.00
57248;BME280;55809;46.618;10.764;2024-01-27T05:46:25;94119.16;;;6.10;100.00
57248;BME280;55809;46.618;10.764;2024-01-27T05:48:52;94127.31;;;6.14;100.00
57248;BME280;55809;46.618;10.764;2024-01-27T05:51:21;94132.34;;;6.16;100.00
57248;BME280;55809;46.618;10.764;2024-01-27T05:53:48;94127.50;;;6.21;100.00
57248;BME280;55809;46.618;10.764;2024-01-27T05:56:15;94116.16;;;6.12;100.00
57248;BME280;55809;46.618;10.764;2024-01-27T05:58:42;94052.84;;;5.67;100.00
57248;BME280;55809;46.618;10.764;2024-01-27T06:01:09;94130.84;;;6.18;100.00
57248;BME280;55809;46.618;10.764;2024-01-27T06:03:36;94140.13;;;6.21;100.00
57248;BME280;55809;46.618;10.764;2024-01-27T06:06:03;94080.28;;;5.76;100.00
57248;BME280;55809;46.618;10.764;2024-01-27T06:08:32;94123.97;;;6.05;100.00
57248;BME280;55809;46.618;10.764;2024-01-27T06:10:59;94141.47;;;6.15;100.00
57248;BME280;55809;46.618;10.764;2024-01-27T06:13:26;94147.75;;;6.19;100.00
57248;BME280;55809;46.618;10.764;2024-01-27T06:15:53;94158.47;;;6.19;100.00
57248;BME280;55809;46.618;10.764;2024-01-27T06:18:20;94155.63;;;6.27;100.00
57248;BME280;55809;46.618;10.764;2024-01-27T06:20:46;94115.84;;;6.01;100.00
57248;BME280;55809;46.618;10.764;2024-01-27T06:23:13;94149.41;;;6.23;100.00
57248;BME280;55809;46.618;10.764;2024-01-27T06:25:42;94160.69;;;6.17;100.00
57248;BME280;55809;46.618;10.764;2024-01-27T06:28:09;94171.44;;;6.17;100.00
57248;BME280;55809;46.618;10.764;2024-01-27T06:30:36;94180.25;;;6.05;100.00
57248;BME280;55809;46.618;10.764;2024-01-27T06:33:03;94173.00;;;6.05;100.00
57248;BME280;55809;46.618;10.764;2024-01-27T06:35:30;94175.16;;;6.00;100.00
57248;BME280;55809;46.618;10.764;2024-01-27T06:37:57;94185.88;;;6.00;100.00
57248;BME280;55809;46.618;10.764;2024-01-27T06:40:24;94158.53;;;5.70;100.00
57248;BME280;55809;46.618;10.764;2024-01-27T06:42:52;94207.53;;;5.82;100.00
57248;BME280;55809;46.618;10.764;2024-01-27T06:45:20;94189.44;;;5.79;100.00
57248;BME280;55809;46.618;10.764;2024-01-27T06:47:46;94193.00;;;5.83;100.00
57248;BME280;55809;46.618;10.764;2024-01-27T06:50:14;94202.38;;;5.90;100.00
57248;BME280;55809;46.618;10.764;2024-01-27T06:52:40;94193.56;;;5.89;100.00
57248;BME280;55809;46.618;10.764;2024-01-27T06:55:08;94194.00;;;5.91;100.00
57248;BME280;55809;46.618;10.764;2024-01-27T06:57:36;94191.22;;;5.87;100.00
57248;BME280;55809;46.618;10.764;2024-01-27T07:00:06;94201.94;;;5.87;100.00
57248;BME280;55809;46.618;10.764;2024-01-27T07:02:33;94208.53;;;5.90;100.00
57248;BME280;55809;46.618;10.764;2024-01-27T07:05:00;94190.53;;;5.91;100.00
57248;BME280;55809;46.618;10.764;2024-01-27T07:07:28;94196.47;;;5.84;100.00
57248;BME280;55809;46.618;10.764;2024-01-27T07:09:55;94206.41;;;5.83;100.00
57248;BME280;55809;46.618;10.764;2024-01-27T07:12:22;94213.41;;;5.88;100.00
57248;BME280;55809;46.618;10.764;2024-01-27T07:14:49;94214.88;;;5.85;100.00
57248;BME280;55809;46.618;10.764;2024-01-27T07:17:19;94210.63;;;5.84;100.00
57248;BME280;55809;46.618;10.764;2024-01-27T07:19:46;94207.63;;;5.86;100.00
57248;BME280;55809;46.618;10.764;2024-01-27T07:22:13;94216.66;;;5.81;100.00
57248;BME280;55809;46.618;10.764;2024-01-27T07:24:40;94220.69;;;5.87;100.00
57248;BME280;55809;46.618;10.764;2024-01-27T07:27:06;94217.13;;;5.83;100.00
57248;BME280;55809;46.618;10.764;2024-01-27T07:29:33;94191.47;;;5.70;100.00
57248;BME280;55809;46.618;10.764;2024-01-27T07:32:00;94220.13;;;5.82;100.00
57248;BME280;55809;46.618;10.764;2024-01-27T07:34:29;94224.28;;;5.79;100.00
57248;BME280;55809;46.618;10.764;2024-01-27T07:36:56;94224.81;;;5.85;100.00
57248;BME280;55809;46.618;10.764;2024-01-27T07:39:23;94226.59;;;5.81;100.00
57248;BME280;55809;46.618;10.764;2024-01-27T07:41:50;94237.78;;;5.95;100.00
57248;BME280;55809;46.618;10.764;2024-01-27T07:44:18;94213.91;;;6.02;100.00
57248;BME280;55809;46.618;10.764;2024-01-27T07:46:45;94218.03;;;6.12;100.00
57248;BME280;55809;46.618;10.764;2024-01-27T07:49:12;94156.06;;;5.77;100.00
57248;BME280;55809;46.618;10.764;2024-01-27T07:51:42;94207.13;;;6.33;100.00
57248;BME280;55809;46.618;10.764;2024-01-27T07:54:09;94202.22;;;6.63;100.00
57248;BME280;55809;46.618;10.764;2024-01-27T07:56:37;94177.25;;;6.47;100.00
57248;BME280;55809;46.618;10.764;2024-01-27T07:59:03;94112.84;;;6.03;100.00
57248;BME280;55809;46.618;10.764;2024-01-27T08:01:30;94206.94;;;6.54;100.00
57248;BME280;55809;46.618;10.764;2024-01-27T08:03:57;94221.09;;;6.39;100.00
57248;BME280;55809;46.618;10.764;2024-01-27T08:06:28;94213.50;;;6.28;100.00
57248;BME280;55809;46.618;10.764;2024-01-27T08:08:56;94222.00;;;6.30;100.00
57248;BME280;55809;46.618;10.764;2024-01-27T08:11:24;94219.69;;;6.17;100.00
57248;BME280;55809;46.618;10.764;2024-01-27T08:13:51;94232.97;;;6.13;100.00
57248;BME280;55809;46.618;10.764;2024-01-27T08:16:19;94231.97;;;6.05;100.00
57248;BME280;55809;46.618;10.764;2024-01-27T08:18:47;94225.25;;;6.11;100.00
57248;BME280;55809;46.618;10.764;2024-01-27T08:21:13;94236.31;;;6.10;100.00
57248;BME280;55809;46.618;10.764;2024-01-27T08:23:41;94231.06;;;6.14;100.00
57248;BME280;55809;46.618;10.764;2024-01-27T08:26:09;94232.81;;;6.22;100.00
57248;BME280;55809;46.618;10.764;2024-01-27T08:28:36;94236.06;;;6.27;100.00
57248;BME280;55809;46.618;10.764;2024-01-27T08:31:03;94233.25;;;6.48;100.00
57248;BME280;55809;46.618;10.764;2024-01-27T08:33:30;94241.22;;;6.61;100.00
57248;BME280;55809;46.618;10.764;2024-01-27T08:35:57;94242.00;;;6.61;100.00
57248;BME280;55809;46.618;10.764;2024-01-27T08:38:24;94240.31;;;6.69;100.00
57248;BME280;55809;46.618;10.764;2024-01-27T08:40:51;94169.00;;;6.40;100.00
57248;BME280;55809;46.618;10.764;2024-01-27T08:43:20;94231.91;;;6.98;100.00
57248;BME280;55809;46.618;10.764;2024-01-27T08:45:46;94226.19;;;7.44;100.00
57248;BME280;55809;46.618;10.764;2024-01-27T08:48:13;94158.34;;;7.31;100.00
57248;BME280;55809;46.618;10.764;2024-01-27T08:50:40;94227.97;;;8.22;100.00
57248;BME280;55809;46.618;10.764;2024-01-27T08:53:07;94199.97;;;8.39;100.00
57248;BME280;55809;46.618;10.764;2024-01-27T08:55:34;94223.91;;;8.83;100.00
57248;BME280;55809;46.618;10.764;2024-01-27T08:58:01;94222.41;;;9.05;100.00
57248;BME280;55809;46.618;10.764;2024-01-27T09:00:29;94223.84;;;9.22;100.00
57248;BME280;55809;46.618;10.764;2024-01-27T09:02:56;94224.59;;;9.42;100.00
57248;BME280;55809;46.618;10.764;2024-01-27T09:05:23;94230.59;;;9.55;100.00
57248;BME280;55809;46.618;10.764;2024-01-27T09:07:50;94225.31;;;9.85;100.00
57248;BME280;55809;46.618;10.764;2024-01-27T09:10:17;94233.25;;;10.01;100.00
57248;BME280;55809;46.618;10.764;2024-01-27T09:12:44;94241.28;;;9.97;100.00
57248;BME280;55809;46.618;10.764;2024-01-27T09:15:11;94232.66;;;9.88;100.00
57248;BME280;55809;46.618;10.764;2024-01-27T09:17:39;94236.13;;;9.89;100.00
57248;BME280;55809;46.618;10.764;2024-01-27T09:20:09;94233.59;;;9.99;100.00
57248;BME280;55809;46.618;10.764;2024-01-27T09:22:36;94245.94;;;10.23;100.00
57248;BME280;55809;46.618;10.764;2024-01-27T09:25:03;94245.84;;;10.20;100.00
57248;BME280;55809;46.618;10.764;2024-01-27T09:27:30;94228.81;;;10.39;100.00
57248;BME280;55809;46.618;10.764;2024-01-27T09:29:57;94240.22;;;10.55;100.00
57248;BME280;55809;46.618;10.764;2024-01-27T09:32:24;94229.91;;;10.64;100.00
57248;BME280;55809;46.618;10.764;2024-01-27T09:34:52;94231.28;;;10.51;100.00
57248;BME280;55809;46.618;10.764;2024-01-27T09:37:19;94230.72;;;10.68;100.00
57248;BME280;55809;46.618;10.764;2024-01-27T09:39:46;94233.94;;;10.77;100.00
57248;BME280;55809;46.618;10.764;2024-01-27T09:42:13;94228.13;;;10.75;100.00
57248;BME280;55809;46.618;10.764;2024-01-27T09:44:43;94240.50;;;10.76;100.00
57248;BME280;55809;46.618;10.764;2024-01-27T09:47:11;94233.94;;;10.77;100.00
57248;BME280;55809;46.618;10.764;2024-01-27T09:49:39;94220.94;;;10.87;100.00
57248;BME280;55809;46.618;10.764;2024-01-27T09:52:09;94232.41;;;11.10;100.00
57248;BME280;55809;46.618;10.764;2024-01-27T09:54:36;94215.59;;;11.27;100.00
57248;BME280;55809;46.618;10.764;2024-01-27T09:57:04;94222.53;;;11.28;100.00
57248;BME280;55809;46.618;10.764;2024-01-27T09:59:32;94224.00;;;11.19;100.00
57248;BME280;55809;46.618;10.764;2024-01-27T10:02:00;94215.19;;;11.25;100.00
57248;BME280;55809;46.618;10.764;2024-01-27T10:04:28;94219.09;;;11.32;100.00
57248;BME280;55809;46.618;10.764;2024-01-27T10:06:57;94211.44;;;11.37;100.00
57248;BME280;55809;46.618;10.764;2024-01-27T10:09:26;94212.63;;;11.40;100.00
57248;BME280;55809;46.618;10.764;2024-01-27T10:11:54;94202.16;;;11.38;100.00
57248;BME280;55809;46.618;10.764;2024-01-27T10:14:23;94212.00;;;11.57;100.00
57248;BME280;55809;46.618;10.764;2024-01-27T10:16:49;94210.03;;;11.54;100.00
57248;BME280;55809;46.618;10.764;2024-01-27T10:19:17;94206.66;;;11.64;100.00
57248;BME280;55809;46.618;10.764;2024-01-27T10:21:46;94209.88;;;11.81;100.00
57248;BME280;55809;46.618;10.764;2024-01-27T10:24:13;94185.84;;;11.68;100.00
57248;BME280;55809;46.618;10.764;2024-01-27T10:26:42;94203.69;;;11.80;100.00
57248;BME280;55809;46.618;10.764;2024-01-27T10:29:09;94201.91;;;11.91;100.00
57248;BME280;55809;46.618;10.764;2024-01-27T10:31:36;94194.56;;;11.95;100.00
57248;BME280;55809;46.618;10.764;2024-01-27T10:34:03;94203.53;;;12.07;100.00
57248;BME280;55809;46.618;10.764;2024-01-27T10:36:40;94197.41;;;12.13;100.00
57248;BME280;55809;46.618;10.764;2024-01-27T10:39:15;94201.69;;;12.18;100.00
57248;BME280;55809;46.618;10.764;2024-01-27T10:41:45;94179.63;;;12.16;100.00
57248;BME280;55809;46.618;10.764;2024-01-27T10:44:14;94195.56;;;12.25;100.00
57248;BME280;55809;46.618;10.764;2024-01-27T10:46:43;94170.06;;;12.33;100.00
57248;BME280;55809;46.618;10.764;2024-01-27T10:49:13;94184.06;;;12.49;100.00
57248;BME280;55809;46.618;10.764;2024-01-27T10:51:43;94187.94;;;12.44;100.00
57248;BME280;55809;46.618;10.764;2024-01-27T10:54:14;94186.34;;;12.40;100.00
57248;BME280;55809;46.618;10.764;2024-01-27T10:56:42;94178.63;;;12.46;100.00
57248;BME280;55809;46.618;10.764;2024-01-27T10:59:11;94180.97;;;12.47;100.00
57248;BME280;55809;46.618;10.764;2024-01-27T11:01:41;94185.22;;;12.44;100.00
57248;BME280;55809;46.618;10.764;2024-01-27T11:04:10;94175.59;;;12.54;100.00
57248;BME280;55809;46.618;10.764;2024-01-27T11:06:39;94174.88;;;12.64;100.00
57248;BME280;55809;46.618;10.764;2024-01-27T11:09:08;94170.25;;;12.72;100.00
57248;BME280;55809;46.618;10.764;2024-01-27T11:11:37;94168.69;;;12.71;100.00
57248;BME280;55809;46.618;10.764;2024-01-27T11:14:06;94171.03;;;12.80;100.00
57248;BME280;55809;46.618;10.764;2024-01-27T11:16:36;94170.69;;;12.85;100.00
57248;BME280;55809;46.618;10.764;2024-01-27T11:19:09;94100.84;;;12.35;100.00
57248;BME280;55809;46.618;10.764;2024-01-27T11:21:36;94147.47;;;12.84;100.00
57248;BME280;55809;46.618;10.764;2024-01-27T11:24:13;94161.34;;;12.72;100.00
57248;BME280;55809;46.618;10.764;2024-01-27T11:26:40;94167.22;;;12.95;100.00
57248;BME280;55809;46.618;10.764;2024-01-27T11:29:07;94156.38;;;12.91;100.00
57248;BME280;55809;46.618;10.764;2024-01-27T11:31:40;94120.28;;;12.62;100.00
57248;BME280;55809;46.618;10.764;2024-01-27T11:34:10;94148.59;;;12.86;100.00
57248;BME280;55809;46.618;10.764;2024-01-27T11:36:38;94154.81;;;12.83;100.00
57248;BME280;55809;46.618;10.764;2024-01-27T11:39:23;94152.50;;;12.93;100.00
57248;BME280;55809;46.618;10.764;2024-01-27T11:41:50;94150.56;;;12.89;100.00
57248;BME280;55809;46.618;10.764;2024-01-27T11:44:17;94142.41;;;12.82;100.00
57248;BME280;55809;46.618;10.764;2024-01-27T11:46:46;94151.72;;;12.81;100.00
57248;BME280;55809;46.618;10.764;2024-01-27T11:49:14;94144.34;;;12.82;100.00
57248;BME280;55809;46.618;10.764;2024-01-27T11:51:42;94159.84;;;12.81;100.00
57248;BME280;55809;46.618;10.764;2024-01-27T11:54:09;94150.94;;;12.81;100.00
57248;BME280;55809;46.618;10.764;2024-01-27T11:56:36;94151.72;;;12.81;100.00
57248;BME280;55809;46.618;10.764;2024-01-27T11:59:03;94145.13;;;12.89;100.00
57248;BME280;55809;46.618;10.764;2024-01-27T12:01:30;94150.19;;;12.87;100.00
57248;BME280;55809;46.618;10.764;2024-01-27T12:03:59;94144.00;;;12.90;100.00
57248;BME280;55809;46.618;10.764;2024-01-27T12:06:25;94143.22;;;12.94;100.00
57248;BME280;55809;46.618;10.764;2024-01-27T12:08:53;94144.38;;;12.89;100.00
57248;BME280;55809;46.618;10.764;2024-01-27T12:11:22;94143.19;;;12.83;100.00
57248;BME280;55809;46.618;10.764;2024-01-27T12:13:49;94128.41;;;12.59;100.00
57248;BME280;55809;46.618;10.764;2024-01-27T12:16:16;94166.00;;;12.75;100.00
57248;BME280;55809;46.618;10.764;2024-01-27T12:18:43;94148.59;;;12.79;100.00
57248;BME280;55809;46.618;10.764;2024-01-27T12:21:12;94136.97;;;12.75;100.00
57248;BME280;55809;46.618;10.764;2024-01-27T12:23:52;94129.63;;;12.76;100.00
57248;BME280;55809;46.618;10.764;2024-01-27T12:26:20;94124.59;;;12.78;100.00
57248;BME280;55809;46.618;10.764;2024-01-27T12:28:47;94129.25;;;12.81;100.00
57248;BME280;55809;46.618;10.764;2024-01-27T12:31:15;94132.31;;;12.76;100.00
57248;BME280;55809;46.618;10.764;2024-01-27T12:33:48;94125.38;;;12.75;100.00
57248;BME280;55809;46.618;10.764;2024-01-27T12:36:19;94118.00;;;12.72;100.00
57248;BME280;55809;46.618;10.764;2024-01-27T12:38:47;94128.84;;;12.72;100.00
57248;BME280;55809;46.618;10.764;2024-01-27T12:41:19;94130.38;;;12.73;100.00
57248;BME280;55809;46.618;10.764;2024-01-27T12:43:45;94138.88;;;12.64;100.00
57248;BME280;55809;46.618;10.764;2024-01-27T12:46:13;94132.31;;;12.68;100.00
57248;BME280;55809;46.618;10.764;2024-01-27T12:48:40;94131.53;;;12.64;100.00
57248;BME280;55809;46.618;10.764;2024-01-27T12:51:07;94071.44;;;12.34;100.00